< < Back
Terminal Aerodrome Forecast


Current Version              Previous Versions:   1  2  3  4  5  6  7  8  9  

Terminal Aerodrome Forecast

991
FTUS44 KOHX 241700
TAFCSV
TAF
KCSV 241720Z 2418/2518 17008KT P6SM BKN250
     FM250000 16005KT P6SM BKN100
     FM250600 18010G20KT P6SM VCTS BKN050CB
      TEMPO 2508/2512 2SM TSRA OVC025CB
     FM251200 24010KT P6SM VCSH SCT007 OVC015=



Latest METAR

777
SAUS70 KWBC 241700 RRI
MTRCSV
METAR KCSV 241653Z AUTO 18007G18KT 130V210 10SM CLR 21/M01 A3001 RMK AO2
SLP151 T02061011


USA.gov is the U.S. government's official web portal to all federal, state and local government web resources and services.